Corinthiakos — A8UL2 — position and weather

sailwx.info

Track history (hours):
 
Tides and Currents Weather Stations Pressure Air Temp Water Temp Dewpoint Dewpoint Depression Visibility Wind Speed Wind Dir Waves Ship Positions

Corinthiakos

Last reported at 2015-Jul-02 04:12 UTC. Time now 2015-Jul-02 21:34 UTC.
Position N 22°06' E 114°25'.

Length 262 m; draft 11.4 m.

Type: Cargo ship. MMSI: 636014516.

Date/timePositionNaut miles runAvg speedWind from/ knotsBaromVisibWave heightAir tempDewpointWater temp
2015-Jul-02 04:12N 22°06' E 114°25'1515.5
2015-Jul-02 03:12N 22°12' E 114°10'811.9
2015-Jul-02 02:33N 22°18' E 114°05'1212.1
2015-Jul-02 01:33N 22°23' E 113°54'4 3.2
2015-Jul-02 00:28N 22°27' E 113°53'0 0.0
2015-Jul-01 23:28N 22°27' E 113°53'0 0.0
2015-Jul-01 22:28N 22°27' E 113°53'0 0.0
2015-Jul-01 21:28N 22°27' E 113°53'0 0.0
2015-Jul-01 20:22N 22°27' E 113°53'0 0.0
2015-Jul-01 19:28N 22°27' E 113°53'0 0.0
2015-Jul-01 18:28N 22°27' E 113°53'0 0.0
2015-Jul-01 17:28N 22°27' E 113°53'0 0.0
2015-Jul-01 16:28N 22°27' E 113°53'0 0.0
2015-Jul-01 15:22N 22°27' E 113°53'0 0.0
2015-Jul-01 14:22N 22°27' E 113°53'0 0.0
2015-Jul-01 13:28N 22°27' E 113°53'0 0.0
2015-Jul-01 12:28N 22°27' E 113°53'0 0.0
2015-Jul-01 11:28N 22°27' E 113°53'0 0.0
2015-Jul-01 10:34N 22°27' E 113°53'4 4.4
2015-Jul-01 09:32N 22°22' E 113°54'1010.3
2015-Jul-01 08:33N 22°20' E 114°05'1 1.0
2015-Jul-01 07:15N 22°19' E 114°05'0 0.1
2015-Jul-01 06:30N 22°19' E 114°05'3 2.9
2015-Jul-01 05:33N 22°20' E 114°07'0 0.1
2015-Jul-01 04:21N 22°20' E 114°08'0 0.0
2015-Jul-01 03:33N 22°20' E 114°08'0 0.0
2015-Jul-01 02:21N 22°20' E 114°08'0 0.0
2015-Jul-01 01:33N 22°20' E 114°08'0 0.0
2015-Jul-01 00:21N 22°20' E 114°08'0 0.0
2015-Jun-30 23:31N 22°20' E 114°08'0 0.0
2015-Jun-30 22:19N 22°20' E 114°08'0 0.0
2015-Jun-30 21:31N 22°20' E 114°08'0 0.0
2015-Jun-30 20:31N 22°20' E 114°08'0 0.0
2015-Jun-30 19:31N 22°20' E 114°08'0 0.0
2015-Jun-30 18:28N 22°20' E 114°08'0 0.0
2015-Jun-30 17:28N 22°20' E 114°08'0 0.0
2015-Jun-30 16:22N 22°20' E 114°08'3 3.8
2015-Jun-30 15:33N 22°17' E 114°06'1010.4
2015-Jun-30 14:33N 22°09' E 114°13'1211.8
2015-Jun-30 13:34N 22°09' E 114°26'295 8.9
2015-Jun-29 04:33N 22°27' E 119°44'1312.8
2015-Jun-29 03:33N 22°30' E 119°58'1312.7
2015-Jun-29 02:33N 22°32' E 120°11'7 7.0
2015-Jun-29 01:33N 22°34' E 120°19'1 0.7
2015-Jun-29 00:29N 22°35' E 120°18'0 0.0
2015-Jun-28 23:29N 22°35' E 120°18'0 0.0
2015-Jun-28 22:29N 22°35' E 120°18'0 0.0
2015-Jun-28 21:23N 22°35' E 120°18'0 0.0
2015-Jun-28 20:29N 22°35' E 120°18'0 0.0
2015-Jun-28 19:23N 22°35' E 120°18'0 0.0
2015-Jun-28 18:26N 22°35' E 120°18'0 0.0
2015-Jun-28 17:32N 22°35' E 120°18'0 0.0
2015-Jun-28 16:32N 22°35' E 120°18'0 0.0
2015-Jun-28 15:32N 22°35' E 120°18'0 0.0
2015-Jun-28 14:32N 22°35' E 120°18'0 0.0
2015-Jun-28 13:32N 22°35' E 120°18'0 0.0
2015-Jun-28 12:29N 22°35' E 120°18'0 0.1
2015-Jun-28 11:29N 22°35' E 120°18'0 0.0
2015-Jun-28 10:26N 22°35' E 120°18'0 0.0
2015-Jun-28 07:32N 22°35' E 120°18'0 0.1
2015-Jun-28 06:26N 22°35' E 120°18'0 0.0
2015-Jun-28 05:32N 22°35' E 120°18'2 1.5
2015-Jun-28 04:33N 22°33' E 120°19'8 7.9
2015-Jun-28 03:33N 22°31' E 120°11'1414.3
2015-Jun-28 02:33N 22°28' E 119°56'  
2015-Jun-24 19:11N 01°18' E 104°20'1219.5
2015-Jun-24 18:34N 01°16' E 104°08'1615.6
2015-Jun-24 17:33N 01°14' E 103°52'3 2.9
2015-Jun-24 16:30N 01°16' E 103°50'0 0.1
2015-Jun-24 15:30N 01°16' E 103°50'0 0.0
2015-Jun-24 14:33N 01°16' E 103°50'0 0.0
2015-Jun-24 13:30N 01°16' E 103°50'0 0.0
2015-Jun-24 12:24N 01°16' E 103°50'0 0.0
2015-Jun-24 11:33N 01°16' E 103°50'0 0.1
2015-Jun-24 10:30N 01°16' E 103°50'0 0.0
2015-Jun-24 09:30N 01°16' E 103°50'0 0.1
2015-Jun-24 08:30N 01°16' E 103°50'0 0.0
2015-Jun-24 07:30N 01°16' E 103°50'0 0.0
2015-Jun-24 06:30N 01°16' E 103°50'0 0.0
2015-Jun-24 05:33N 01°16' E 103°50'0 0.0
2015-Jun-24 04:33N 01°16' E 103°50'0 0.3
2015-Jun-24 03:33N 01°16' E 103°50'4 4.3
2015-Jun-24 02:33N 01°14' E 103°54'6 6.1
2015-Jun-24 01:33N 01°10' E 103°49'  
Track history (hours):
 
Tides and Currents Weather Stations Pressure Air Temp Water Temp Dewpoint Dewpoint Depression Visibility Wind Speed Wind Dir Waves Ship Positions

Corinthiakos

Last reported at 2015-Jul-02 04:12 UTC. Time now 2015-Jul-02 21:34 UTC.
Position N 22°06' E 114°25'.

Length 262 m; draft 11.4 m.

Type: Cargo ship. MMSI: 636014516.

Date/timePositionNaut miles runAvg speedWind from/ knotsBaromVisibWave heightAir tempDewpointWater temp
2015-Jul-02 04:12N 22°06' E 114°25'1515.5
2015-Jul-02 03:12N 22°12' E 114°10'811.9
2015-Jul-02 02:33N 22°18' E 114°05'1212.1
2015-Jul-02 01:33N 22°23' E 113°54'4 3.2
2015-Jul-02 00:28N 22°27' E 113°53'0 0.0
2015-Jul-01 23:28N 22°27' E 113°53'0 0.0
2015-Jul-01 22:28N 22°27' E 113°53'0 0.0
2015-Jul-01 21:28N 22°27' E 113°53'0 0.0
2015-Jul-01 20:22N 22°27' E 113°53'0 0.0
2015-Jul-01 19:28N 22°27' E 113°53'0 0.0
2015-Jul-01 18:28N 22°27' E 113°53'0 0.0
2015-Jul-01 17:28N 22°27' E 113°53'0 0.0
2015-Jul-01 16:28N 22°27' E 113°53'0 0.0
2015-Jul-01 15:22N 22°27' E 113°53'0 0.0
2015-Jul-01 14:22N 22°27' E 113°53'0 0.0
2015-Jul-01 13:28N 22°27' E 113°53'0 0.0
2015-Jul-01 12:28N 22°27' E 113°53'0 0.0
2015-Jul-01 11:28N 22°27' E 113°53'0 0.0
2015-Jul-01 10:34N 22°27' E 113°53'4 4.4
2015-Jul-01 09:32N 22°22' E 113°54'1010.3
2015-Jul-01 08:33N 22°20' E 114°05'1 1.0
2015-Jul-01 07:15N 22°19' E 114°05'0 0.1
2015-Jul-01 06:30N 22°19' E 114°05'3 2.9
2015-Jul-01 05:33N 22°20' E 114°07'0 0.1
2015-Jul-01 04:21N 22°20' E 114°08'0 0.0
2015-Jul-01 03:33N 22°20' E 114°08'0 0.0
2015-Jul-01 02:21N 22°20' E 114°08'0 0.0
2015-Jul-01 01:33N 22°20' E 114°08'0 0.0
2015-Jul-01 00:21N 22°20' E 114°08'0 0.0
2015-Jun-30 23:31N 22°20' E 114°08'0 0.0
2015-Jun-30 22:19N 22°20' E 114°08'0 0.0
2015-Jun-30 21:31N 22°20' E 114°08'0 0.0
2015-Jun-30 20:31N 22°20' E 114°08'0 0.0
2015-Jun-30 19:31N 22°20' E 114°08'0 0.0
2015-Jun-30 18:28N 22°20' E 114°08'0 0.0
2015-Jun-30 17:28N 22°20' E 114°08'0 0.0
2015-Jun-30 16:22N 22°20' E 114°08'3 3.8
2015-Jun-30 15:33N 22°17' E 114°06'1010.4
2015-Jun-30 14:33N 22°09' E 114°13'1211.8
2015-Jun-30 13:34N 22°09' E 114°26'295 8.9
2015-Jun-29 04:33N 22°27' E 119°44'1312.8
2015-Jun-29 03:33N 22°30' E 119°58'1312.7
2015-Jun-29 02:33N 22°32' E 120°11'7 7.0
2015-Jun-29 01:33N 22°34' E 120°19'1 0.7
2015-Jun-29 00:29N 22°35' E 120°18'0 0.0
2015-Jun-28 23:29N 22°35' E 120°18'0 0.0
2015-Jun-28 22:29N 22°35' E 120°18'0 0.0
2015-Jun-28 21:23N 22°35' E 120°18'0 0.0
2015-Jun-28 20:29N 22°35' E 120°18'0 0.0
2015-Jun-28 19:23N 22°35' E 120°18'0 0.0
2015-Jun-28 18:26N 22°35' E 120°18'0 0.0
2015-Jun-28 17:32N 22°35' E 120°18'0 0.0
2015-Jun-28 16:32N 22°35' E 120°18'0 0.0
2015-Jun-28 15:32N 22°35' E 120°18'0 0.0
2015-Jun-28 14:32N 22°35' E 120°18'0 0.0
2015-Jun-28 13:32N 22°35' E 120°18'0 0.0
2015-Jun-28 12:29N 22°35' E 120°18'0 0.1
2015-Jun-28 11:29N 22°35' E 120°18'0 0.0
2015-Jun-28 10:26N 22°35' E 120°18'0 0.0
2015-Jun-28 07:32N 22°35' E 120°18'0 0.1
2015-Jun-28 06:26N 22°35' E 120°18'0 0.0
2015-Jun-28 05:32N 22°35' E 120°18'2 1.5
2015-Jun-28 04:33N 22°33' E 120°19'8 7.9
2015-Jun-28 03:33N 22°31' E 120°11'1414.3
2015-Jun-28 02:33N 22°28' E 119°56'  
2015-Jun-24 19:11N 01°18' E 104°20'1219.5
2015-Jun-24 18:34N 01°16' E 104°08'1615.6
2015-Jun-24 17:33N 01°14' E 103°52'3 2.9
2015-Jun-24 16:30N 01°16' E 103°50'0 0.1
2015-Jun-24 15:30N 01°16' E 103°50'0 0.0
2015-Jun-24 14:33N 01°16' E 103°50'0 0.0
2015-Jun-24 13:30N 01°16' E 103°50'0 0.0
2015-Jun-24 12:24N 01°16' E 103°50'0 0.0
2015-Jun-24 11:33N 01°16' E 103°50'0 0.1
2015-Jun-24 10:30N 01°16' E 103°50'0 0.0
2015-Jun-24 09:30N 01°16' E 103°50'0 0.1
2015-Jun-24 08:30N 01°16' E 103°50'0 0.0
2015-Jun-24 07:30N 01°16' E 103°50'0 0.0
2015-Jun-24 06:30N 01°16' E 103°50'0 0.0
2015-Jun-24 05:33N 01°16' E 103°50'0 0.0
2015-Jun-24 04:33N 01°16' E 103°50'0 0.3
2015-Jun-24 03:33N 01°16' E 103°50'4 4.3
2015-Jun-24 02:33N 01°14' E 103°54'6 6.1
2015-Jun-24 01:33N 01°10' E 103°49'  

Dump ship's entire track history